sensor_id;sensor_type;location;lat;lon;timestamp;temperature;humidity
46720;DHT22;32452;51.382;-0.002;2022-10-16T00:00:37;12.80;96.70
46720;DHT22;32452;51.382;-0.002;2022-10-16T00:03:23;12.70;96.70
46720;DHT22;32452;51.382;-0.002;2022-10-16T00:06:14;12.70;96.70
46720;DHT22;32452;51.382;-0.002;2022-10-16T00:09:02;12.70;96.80
46720;DHT22;32452;51.382;-0.002;2022-10-16T00:12:03;12.80;96.90
46720;DHT22;32452;51.382;-0.002;2022-10-16T00:15:04;12.80;96.90
46720;DHT22;32452;51.382;-0.002;2022-10-16T00:17:56;12.90;96.90
46720;DHT22;32452;51.382;-0.002;2022-10-16T00:20:43;12.90;96.80
46720;DHT22;32452;51.382;-0.002;2022-10-16T00:23:35;13.00;96.90
46720;DHT22;32452;51.382;-0.002;2022-10-16T00:26:29;13.00;96.80
46720;DHT22;32452;51.382;-0.002;2022-10-16T00:29:15;13.10;96.80
46720;DHT22;32452;51.382;-0.002;2022-10-16T00:32:05;13.10;96.70
46720;DHT22;32452;51.382;-0.002;2022-10-16T00:35:10;13.10;96.60
46720;DHT22;32452;51.382;-0.002;2022-10-16T00:38:01;13.00;96.50
46720;DHT22;32452;51.382;-0.002;2022-10-16T00:40:49;13.00;96.60
46720;DHT22;32452;51.382;-0.002;2022-10-16T00:43:55;12.90;96.60
46720;DHT22;32452;51.382;-0.002;2022-10-16T00:46:53;12.90;96.70
46720;DHT22;32452;51.382;-0.002;2022-10-16T00:49:47;12.80;96.70
46720;DHT22;32452;51.382;-0.002;2022-10-16T00:52:46;12.80;96.70
46720;DHT22;32452;51.382;-0.002;2022-10-16T00:55:38;12.70;96.70
46720;DHT22;32452;51.382;-0.002;2022-10-16T00:58:31;12.70;96.70
46720;DHT22;32452;51.382;-0.002;2022-10-16T01:01:36;12.70;96.90
46720;DHT22;32452;51.382;-0.002;2022-10-16T01:04:31;12.70;96.90
46720;DHT22;32452;51.382;-0.002;2022-10-16T01:11:33;12.70;97.10
46720;DHT22;32452;51.382;-0.002;2022-10-16T01:14:02;12.70;97.10
46720;DHT22;32452;51.382;-0.002;2022-10-16T01:17:00;12.60;97.20
46720;DHT22;32452;51.382;-0.002;2022-10-16T01:23:12;12.60;97.20
46720;DHT22;32452;51.382;-0.002;2022-10-16T01:35:29;12.60;97.60
46720;DHT22;32452;51.382;-0.002;2022-10-16T01:38:36;12.60;97.70
46720;DHT22;32452;51.382;-0.002;2022-10-16T01:41:41;12.60;97.80
46720;DHT22;32452;51.382;-0.002;2022-10-16T01:44:33;12.60;98.00
46720;DHT22;32452;51.382;-0.002;2022-10-16T01:47:23;12.60;98.10
46720;DHT22;32452;51.382;-0.002;2022-10-16T01:50:12;12.60;98.40
46720;DHT22;32452;51.382;-0.002;2022-10-16T01:53:02;12.60;98.60
46720;DHT22;32452;51.382;-0.002;2022-10-16T01:55:49;12.60;98.80
46720;DHT22;32452;51.382;-0.002;2022-10-16T01:58:39;12.60;98.90
46720;DHT22;32452;51.382;-0.002;2022-10-16T02:01:29;12.70;99.10
46720;DHT22;32452;51.382;-0.002;2022-10-16T02:04:58;12.70;99.10
46720;DHT22;32452;51.382;-0.002;2022-10-16T02:07:58;12.80;99.10
46720;DHT22;32452;51.382;-0.002;2022-10-16T02:10:48;12.80;99.10
46720;DHT22;32452;51.382;-0.002;2022-10-16T02:13:48;12.80;99.30
46720;DHT22;32452;51.382;-0.002;2022-10-16T02:16:45;12.90;99.50
46720;DHT22;32452;51.382;-0.002;2022-10-16T02:19:30;12.90;99.40
46720;DHT22;32452;51.382;-0.002;2022-10-16T02:25:31;12.90;99.20
46720;DHT22;32452;51.382;-0.002;2022-10-16T02:28:26;12.80;99.00
46720;DHT22;32452;51.382;-0.002;2022-10-16T02:31:18;12.80;98.80
46720;DHT22;32452;51.382;-0.002;2022-10-16T02:34:06;12.80;98.70
46720;DHT22;32452;51.382;-0.002;2022-10-16T02:36:52;12.70;98.60
46720;DHT22;32452;51.382;-0.002;2022-10-16T02:39:39;12.60;98.50
46720;DHT22;32452;51.382;-0.002;2022-10-16T02:42:33;12.60;98.50
46720;DHT22;32452;51.382;-0.002;2022-10-16T02:45:26;12.50;98.50
46720;DHT22;32452;51.382;-0.002;2022-10-16T02:48:24;12.50;98.40
46720;DHT22;32452;51.382;-0.002;2022-10-16T02:51:09;12.40;98.40
46720;DHT22;32452;51.382;-0.002;2022-10-16T02:53:55;12.30;98.30
46720;DHT22;32452;51.382;-0.002;2022-10-16T02:56:40;12.30;98.30
46720;DHT22;32452;51.382;-0.002;2022-10-16T02:59:27;12.30;98.40
46720;DHT22;32452;51.382;-0.002;2022-10-16T03:02:18;12.30;98.40
46720;DHT22;32452;51.382;-0.002;2022-10-16T03:05:07;12.20;98.30
46720;DHT22;32452;51.382;-0.002;2022-10-16T03:07:53;12.20;98.30
46720;DHT22;32452;51.382;-0.002;2022-10-16T03:10:39;12.20;98.20
46720;DHT22;32452;51.382;-0.002;2022-10-16T03:13:24;12.20;98.10
46720;DHT22;32452;51.382;-0.002;2022-10-16T03:16:10;12.20;98.00
46720;DHT22;32452;51.382;-0.002;2022-10-16T03:18:55;12.10;98.00
46720;DHT22;32452;51.382;-0.002;2022-10-16T03:21:41;12.10;97.90
46720;DHT22;32452;51.382;-0.002;2022-10-16T03:24:29;12.10;97.90
46720;DHT22;32452;51.382;-0.002;2022-10-16T03:27:32;12.10;97.80
46720;DHT22;32452;51.382;-0.002;2022-10-16T03:30:17;12.00;97.70
46720;DHT22;32452;51.382;-0.002;2022-10-16T03:33:03;12.00;97.70
46720;DHT22;32452;51.382;-0.002;2022-10-16T03:35:53;12.00;97.70
46720;DHT22;32452;51.382;-0.002;2022-10-16T03:38:39;12.00;98.10
46720;DHT22;32452;51.382;-0.002;2022-10-16T03:41:27;12.00;97.80
46720;DHT22;32452;51.382;-0.002;2022-10-16T03:44:17;11.90;97.70
46720;DHT22;32452;51.382;-0.002;2022-10-16T03:47:08;12.00;97.70
46720;DHT22;32452;51.382;-0.002;2022-10-16T03:49:54;12.00;97.60
46720;DHT22;32452;51.382;-0.002;2022-10-16T03:52:44;12.00;97.60
46720;DHT22;32452;51.382;-0.002;2022-10-16T03:55:35;12.00;97.60
46720;DHT22;32452;51.382;-0.002;2022-10-16T03:58:27;12.00;97.60
46720;DHT22;32452;51.382;-0.002;2022-10-16T04:01:13;12.00;97.60
46720;DHT22;32452;51.382;-0.002;2022-10-16T04:03:59;12.00;97.50
46720;DHT22;32452;51.382;-0.002;2022-10-16T04:06:48;12.00;97.50
46720;DHT22;32452;51.382;-0.002;2022-10-16T04:09:34;12.00;97.60
46720;DHT22;32452;51.382;-0.002;2022-10-16T04:12:20;12.00;97.50
46720;DHT22;32452;51.382;-0.002;2022-10-16T04:15:06;11.90;97.60
46720;DHT22;32452;51.382;-0.002;2022-10-16T04:17:52;12.00;97.70
46720;DHT22;32452;51.382;-0.002;2022-10-16T04:20:37;12.00;97.70
46720;DHT22;32452;51.382;-0.002;2022-10-16T04:23:23;11.90;97.80
46720;DHT22;32452;51.382;-0.002;2022-10-16T04:26:08;11.90;97.90
46720;DHT22;32452;51.382;-0.002;2022-10-16T04:28:56;11.90;98.00
46720;DHT22;32452;51.382;-0.002;2022-10-16T04:32:03;11.90;98.00
46720;DHT22;32452;51.382;-0.002;2022-10-16T04:34:51;11.90;98.10
46720;DHT22;32452;51.382;-0.002;2022-10-16T04:37:36;11.80;98.20
46720;DHT22;32452;51.382;-0.002;2022-10-16T04:40:21;11.80;98.30
46720;DHT22;32452;51.382;-0.002;2022-10-16T04:43:08;11.80;98.30
46720;DHT22;32452;51.382;-0.002;2022-10-16T04:46:01;11.80;98.50
46720;DHT22;32452;51.382;-0.002;2022-10-16T04:48:55;11.80;98.60
46720;DHT22;32452;51.382;-0.002;2022-10-16T04:51:41;11.70;98.60
46720;DHT22;32452;51.382;-0.002;2022-10-16T04:54:26;11.70;98.70
46720;DHT22;32452;51.382;-0.002;2022-10-16T04:57:12;11.70;98.80
46720;DHT22;32452;51.382;-0.002;2022-10-16T04:59:57;11.70;98.90
46720;DHT22;32452;51.382;-0.002;2022-10-16T05:02:43;11.60;98.90
46720;DHT22;32452;51.382;-0.002;2022-10-16T05:05:28;11.60;98.90
46720;DHT22;32452;51.382;-0.002;2022-10-16T05:08:15;11.60;98.90
46720;DHT22;32452;51.382;-0.002;2022-10-16T05:11:00;11.60;98.90
46720;DHT22;32452;51.382;-0.002;2022-10-16T05:13:46;11.60;98.90
46720;DHT22;32452;51.382;-0.002;2022-10-16T05:16:42;11.50;98.90
46720;DHT22;32452;51.382;-0.002;2022-10-16T05:19:33;11.50;98.90
46720;DHT22;32452;51.382;-0.002;2022-10-16T05:22:24;11.50;98.90
46720;DHT22;32452;51.382;-0.002;2022-10-16T05:25:11;11.50;98.80
46720;DHT22;32452;51.382;-0.002;2022-10-16T05:28:03;11.50;98.70
46720;DHT22;32452;51.382;-0.002;2022-10-16T05:30:49;11.50;98.60
46720;DHT22;32452;51.382;-0.002;2022-10-16T05:33:38;11.50;98.50
46720;DHT22;32452;51.382;-0.002;2022-10-16T05:36:25;11.40;98.40
46720;DHT22;32452;51.382;-0.002;2022-10-16T05:39:14;11.40;98.30
46720;DHT22;32452;51.382;-0.002;2022-10-16T05:41:59;11.40;98.30
46720;DHT22;32452;51.382;-0.002;2022-10-16T05:44:45;11.40;98.30
46720;DHT22;32452;51.382;-0.002;2022-10-16T05:47:30;11.40;98.20
46720;DHT22;32452;51.382;-0.002;2022-10-16T05:50:16;11.40;98.20
46720;DHT22;32452;51.382;-0.002;2022-10-16T05:53:01;11.40;98.10
46720;DHT22;32452;51.382;-0.002;2022-10-16T05:55:52;11.40;98.10
46720;DHT22;32452;51.382;-0.002;2022-10-16T05:58:38;11.40;98.10
46720;DHT22;32452;51.382;-0.002;2022-10-16T06:01:25;11.40;98.00
46720;DHT22;32452;51.382;-0.002;2022-10-16T06:04:11;11.40;98.00
46720;DHT22;32452;51.382;-0.002;2022-10-16T06:06:58;11.40;97.90
46720;DHT22;32452;51.382;-0.002;2022-10-16T06:09:51;11.30;97.90
46720;DHT22;32452;51.382;-0.002;2022-10-16T06:12:37;11.40;97.80
46720;DHT22;32452;51.382;-0.002;2022-10-16T06:15:22;11.30;97.70
46720;DHT22;32452;51.382;-0.002;2022-10-16T06:18:08;11.30;97.70
46720;DHT22;32452;51.382;-0.002;2022-10-16T06:20:55;11.30;97.70
46720;DHT22;32452;51.382;-0.002;2022-10-16T06:23:40;11.30;97.70
46720;DHT22;32452;51.382;-0.002;2022-10-16T06:26:28;11.30;97.70
46720;DHT22;32452;51.382;-0.002;2022-10-16T06:29:14;11.30;97.70
46720;DHT22;32452;51.382;-0.002;2022-10-16T06:31:59;11.30;97.60
46720;DHT22;32452;51.382;-0.002;2022-10-16T06:34:45;11.30;97.60
46720;DHT22;32452;51.382;-0.002;2022-10-16T06:37:31;11.30;97.50
46720;DHT22;32452;51.382;-0.002;2022-10-16T06:40:17;11.30;97.40
46720;DHT22;32452;51.382;-0.002;2022-10-16T06:43:03;11.30;97.40
46720;DHT22;32452;51.382;-0.002;2022-10-16T06:45:56;11.30;97.40
46720;DHT22;32452;51.382;-0.002;2022-10-16T06:48:41;11.30;97.40
46720;DHT22;32452;51.382;-0.002;2022-10-16T06:51:27;11.30;97.40
46720;DHT22;32452;51.382;-0.002;2022-10-16T06:54:12;11.30;97.40
46720;DHT22;32452;51.382;-0.002;2022-10-16T06:56:58;11.30;97.40
46720;DHT22;32452;51.382;-0.002;2022-10-16T06:59:45;11.30;97.40
46720;DHT22;32452;51.382;-0.002;2022-10-16T07:02:31;11.30;97.30
46720;DHT22;32452;51.382;-0.002;2022-10-16T07:05:17;11.40;97.30
46720;DHT22;32452;51.382;-0.002;2022-10-16T07:08:02;11.40;97.30
46720;DHT22;32452;51.382;-0.002;2022-10-16T07:10:58;11.40;97.20
46720;DHT22;32452;51.382;-0.002;2022-10-16T07:13:45;11.50;97.20
46720;DHT22;32452;51.382;-0.002;2022-10-16T07:16:38;11.50;97.20
46720;DHT22;32452;51.382;-0.002;2022-10-16T07:19:23;11.50;97.20
46720;DHT22;32452;51.382;-0.002;2022-10-16T07:22:14;11.50;97.30
46720;DHT22;32452;51.382;-0.002;2022-10-16T07:25:00;11.60;97.30
46720;DHT22;32452;51.382;-0.002;2022-10-16T07:27:45;11.60;97.40
46720;DHT22;32452;51.382;-0.002;2022-10-16T07:30:34;11.60;97.50
46720;DHT22;32452;51.382;-0.002;2022-10-16T07:33:21;11.60;97.50
46720;DHT22;32452;51.382;-0.002;2022-10-16T07:36:06;11.60;97.60
46720;DHT22;32452;51.382;-0.002;2022-10-16T07:38:55;11.70;97.60
46720;DHT22;32452;51.382;-0.002;2022-10-16T07:41:44;11.70;97.70
46720;DHT22;32452;51.382;-0.002;2022-10-16T07:44:30;11.80;97.80
46720;DHT22;32452;51.382;-0.002;2022-10-16T07:47:15;11.90;98.10
46720;DHT22;32452;51.382;-0.002;2022-10-16T07:50:00;11.90;97.80
46720;DHT22;32452;51.382;-0.002;2022-10-16T07:52:46;12.00;98.20
46720;DHT22;32452;51.382;-0.002;2022-10-16T07:55:31;12.10;97.90
46720;DHT22;32452;51.382;-0.002;2022-10-16T07:58:17;12.40;98.20
46720;DHT22;32452;51.382;-0.002;2022-10-16T08:01:10;13.10;98.10
46720;DHT22;32452;51.382;-0.002;2022-10-16T08:03:56;14.00;97.10
46720;DHT22;32452;51.382;-0.002;2022-10-16T08:06:42;14.90;96.00
46720;DHT22;32452;51.382;-0.002;2022-10-16T08:09:27;15.70;94.30
46720;DHT22;32452;51.382;-0.002;2022-10-16T08:12:13;16.40;93.00
46720;DHT22;32452;51.382;-0.002;2022-10-16T08:14:58;16.90;91.30
46720;DHT22;32452;51.382;-0.002;2022-10-16T08:17:44;16.90;90.10
46720;DHT22;32452;51.382;-0.002;2022-10-16T08:20:30;16.70;89.40
46720;DHT22;32452;51.382;-0.002;2022-10-16T08:23:16;16.30;89.20
46720;DHT22;32452;51.382;-0.002;2022-10-16T08:26:07;16.00;89.40
46720;DHT22;32452;51.382;-0.002;2022-10-16T08:28:53;15.70;89.30
46720;DHT22;32452;51.382;-0.002;2022-10-16T08:31:39;15.50;89.60
46720;DHT22;32452;51.382;-0.002;2022-10-16T08:34:24;15.30;89.90
46720;DHT22;32452;51.382;-0.002;2022-10-16T08:37:10;15.20;90.00
46720;DHT22;32452;51.382;-0.002;2022-10-16T08:39:57;15.20;90.30
46720;DHT22;32452;51.382;-0.002;2022-10-16T08:51:38;18.40;82.60
46720;DHT22;32452;51.382;-0.002;2022-10-16T08:54:36;19.30;78.40
46720;DHT22;32452;51.382;-0.002;2022-10-16T08:57:26;20.00;74.50
46720;DHT22;32452;51.382;-0.002;2022-10-16T09:00:15;20.50;71.80
46720;DHT22;32452;51.382;-0.002;2022-10-16T09:03:22;20.90;68.90
46720;DHT22;32452;51.382;-0.002;2022-10-16T09:23:50;22.20;57.60
46720;DHT22;32452;51.382;-0.002;2022-10-16T09:26:35;22.30;56.90
46720;DHT22;32452;51.382;-0.002;2022-10-16T09:29:21;22.50;55.90
46720;DHT22;32452;51.382;-0.002;2022-10-16T09:32:15;22.50;55.40
46720;DHT22;32452;51.382;-0.002;2022-10-16T09:35:02;22.60;54.40
46720;DHT22;32452;51.382;-0.002;2022-10-16T09:37:50;22.70;54.30
46720;DHT22;32452;51.382;-0.002;2022-10-16T09:40:38;22.90;53.40
46720;DHT22;32452;51.382;-0.002;2022-10-16T09:49:24;23.70;50.50
46720;DHT22;32452;51.382;-0.002;2022-10-16T09:52:14;24.10;50.50
46720;DHT22;32452;51.382;-0.002;2022-10-16T09:55:09;24.20;49.50
46720;DHT22;32452;51.382;-0.002;2022-10-16T09:57:57;23.50;49.20
46720;DHT22;32452;51.382;-0.002;2022-10-16T10:00:50;22.80;50.10
46720;DHT22;32452;51.382;-0.002;2022-10-16T10:03:42;22.10;50.80
46720;DHT22;32452;51.382;-0.002;2022-10-16T10:06:30;21.50;51.80
46720;DHT22;32452;51.382;-0.002;2022-10-16T10:09:24;21.00;52.70
46720;DHT22;32452;51.382;-0.002;2022-10-16T10:12:28;20.90;53.60
46720;DHT22;32452;51.382;-0.002;2022-10-16T10:15:16;21.00;54.40
46720;DHT22;32452;51.382;-0.002;2022-10-16T10:18:18;21.10;53.60
46720;DHT22;32452;51.382;-0.002;2022-10-16T10:21:04;21.50;53.90
46720;DHT22;32452;51.382;-0.002;2022-10-16T10:23:57;21.80;53.10
46720;DHT22;32452;51.382;-0.002;2022-10-16T10:27:03;22.20;52.40
46720;DHT22;32452;51.382;-0.002;2022-10-16T10:30:01;22.40;51.40
46720;DHT22;32452;51.382;-0.002;2022-10-16T10:42:16;22.80;50.10
46720;DHT22;32452;51.382;-0.002;2022-10-16T10:45:27;23.30;49.30
46720;DHT22;32452;51.382;-0.002;2022-10-16T10:51:13;23.80;47.80
46720;DHT22;32452;51.382;-0.002;2022-10-16T10:54:19;23.90;47.00
46720;DHT22;32452;51.382;-0.002;2022-10-16T11:06:19;24.10;45.30
46720;DHT22;32452;51.382;-0.002;2022-10-16T11:09:10;24.10;45.80
46720;DHT22;32452;51.382;-0.002;2022-10-16T11:20:42;23.60;45.50
46720;DHT22;32452;51.382;-0.002;2022-10-16T11:26:33;23.30;45.70
46720;DHT22;32452;51.382;-0.002;2022-10-16T11:29:29;23.20;46.20
46720;DHT22;32452;51.382;-0.002;2022-10-16T11:32:27;23.00;46.30
46720;DHT22;32452;51.382;-0.002;2022-10-16T11:35:25;22.70;47.00
46720;DHT22;32452;51.382;-0.002;2022-10-16T11:41:42;22.10;48.40
46720;DHT22;32452;51.382;-0.002;2022-10-16T11:44:38;21.80;49.00
46720;DHT22;32452;51.382;-0.002;2022-10-16T11:47:33;21.80;49.50
46720;DHT22;32452;51.382;-0.002;2022-10-16T11:50:53;21.70;50.10
46720;DHT22;32452;51.382;-0.002;2022-10-16T11:56:56;22.20;50.30
46720;DHT22;32452;51.382;-0.002;2022-10-16T12:03:28;23.00;48.30
46720;DHT22;32452;51.382;-0.002;2022-10-16T12:09:29;22.30;48.50
46720;DHT22;32452;51.382;-0.002;2022-10-16T12:15:25;21.60;49.00
46720;DHT22;32452;51.382;-0.002;2022-10-16T12:18:31;21.30;49.90
46720;DHT22;32452;51.382;-0.002;2022-10-16T12:21:17;21.00;50.90
46720;DHT22;32452;51.382;-0.002;2022-10-16T12:24:04;20.70;51.70
46720;DHT22;32452;51.382;-0.002;2022-10-16T12:26:52;20.40;52.70
46720;DHT22;32452;51.382;-0.002;2022-10-16T12:29:42;20.10;53.60
46720;DHT22;32452;51.382;-0.002;2022-10-16T12:32:37;19.90;54.30
46720;DHT22;32452;51.382;-0.002;2022-10-16T12:35:43;19.70;55.10
46720;DHT22;32452;51.382;-0.002;2022-10-16T12:41:32;19.50;56.30
46720;DHT22;32452;51.382;-0.002;2022-10-16T12:44:25;19.40;56.60
46720;DHT22;32452;51.382;-0.002;2022-10-16T12:47:49;19.30;57.00
46720;DHT22;32452;51.382;-0.002;2022-10-16T12:50:38;19.10;57.50
46720;DHT22;32452;51.382;-0.002;2022-10-16T12:53:26;18.90;58.20
46720;DHT22;32452;51.382;-0.002;2022-10-16T12:56:20;18.80;58.60
46720;DHT22;32452;51.382;-0.002;2022-10-16T13:02:24;18.60;59.40
46720;DHT22;32452;51.382;-0.002;2022-10-16T13:05:46;18.50;59.90
46720;DHT22;32452;51.382;-0.002;2022-10-16T13:08:55;18.40;60.80
46720;DHT22;32452;51.382;-0.002;2022-10-16T13:27:29;18.10;64.20
46720;DHT22;32452;51.382;-0.002;2022-10-16T13:30:20;18.00;64.50
46720;DHT22;32452;51.382;-0.002;2022-10-16T13:33:34;17.90;64.80
46720;DHT22;32452;51.382;-0.002;2022-10-16T13:44:54;17.80;66.40
46720;DHT22;32452;51.382;-0.002;2022-10-16T13:47:40;17.80;66.80
46720;DHT22;32452;51.382;-0.002;2022-10-16T13:50:25;17.90;67.20
46720;DHT22;32452;51.382;-0.002;2022-10-16T13:53:14;17.90;67.30
46720;DHT22;32452;51.382;-0.002;2022-10-16T13:56:03;18.00;67.50
46720;DHT22;32452;51.382;-0.002;2022-10-16T13:59:03;18.00;67.80
46720;DHT22;32452;51.382;-0.002;2022-10-16T14:01:49;18.10;68.00
46720;DHT22;32452;51.382;-0.002;2022-10-16T14:04:38;18.10;67.80
46720;DHT22;32452;51.382;-0.002;2022-10-16T14:07:26;18.00;67.70
46720;DHT22;32452;51.382;-0.002;2022-10-16T14:10:31;18.00;67.90
46720;DHT22;32452;51.382;-0.002;2022-10-16T14:13:19;17.90;68.30
46720;DHT22;32452;51.382;-0.002;2022-10-16T14:16:10;17.90;68.60
46720;DHT22;32452;51.382;-0.002;2022-10-16T14:19:03;17.90;68.90
46720;DHT22;32452;51.382;-0.002;2022-10-16T14:21:52;17.90;69.20
46720;DHT22;32452;51.382;-0.002;2022-10-16T14:24:38;17.80;69.50
46720;DHT22;32452;51.382;-0.002;2022-10-16T14:27:33;17.70;69.80
46720;DHT22;32452;51.382;-0.002;2022-10-16T14:30:21;17.70;70.30
46720;DHT22;32452;51.382;-0.002;2022-10-16T14:33:24;17.60;70.70
46720;DHT22;32452;51.382;-0.002;2022-10-16T14:36:11;17.60;72.20
46720;DHT22;32452;51.382;-0.002;2022-10-16T14:39:13;17.60;71.70
46720;DHT22;32452;51.382;-0.002;2022-10-16T14:42:02;17.50;72.40
46720;DHT22;32452;51.382;-0.002;2022-10-16T14:44:48;17.50;72.70
46720;DHT22;32452;51.382;-0.002;2022-10-16T14:47:34;17.50;73.20
46720;DHT22;32452;51.382;-0.002;2022-10-16T14:50:21;17.50;73.60
46720;DHT22;32452;51.382;-0.002;2022-10-16T14:53:14;17.40;74.20
46720;DHT22;32452;51.382;-0.002;2022-10-16T14:56:07;17.40;74.70
46720;DHT22;32452;51.382;-0.002;2022-10-16T14:58:53;17.40;75.10
46720;DHT22;32452;51.382;-0.002;2022-10-16T15:01:39;17.40;75.60
46720;DHT22;32452;51.382;-0.002;2022-10-16T15:04:24;17.30;76.00
46720;DHT22;32452;51.382;-0.002;2022-10-16T15:07:10;17.30;76.40
46720;DHT22;32452;51.382;-0.002;2022-10-16T15:09:55;17.30;77.20
46720;DHT22;32452;51.382;-0.002;2022-10-16T15:12:42;17.30;77.80
46720;DHT22;32452;51.382;-0.002;2022-10-16T15:15:37;17.30;78.20
46720;DHT22;32452;51.382;-0.002;2022-10-16T15:18:23;17.20;78.80
46720;DHT22;32452;51.382;-0.002;2022-10-16T15:21:29;17.10;79.20
46720;DHT22;32452;51.382;-0.002;2022-10-16T15:24:15;17.10;79.80
46720;DHT22;32452;51.382;-0.002;2022-10-16T15:27:06;17.00;80.20
46720;DHT22;32452;51.382;-0.002;2022-10-16T15:29:51;16.90;81.00
46720;DHT22;32452;51.382;-0.002;2022-10-16T15:32:37;16.90;81.60
46720;DHT22;32452;51.382;-0.002;2022-10-16T15:35:23;16.80;82.10
46720;DHT22;32452;51.382;-0.002;2022-10-16T15:38:12;16.80;82.60
46720;DHT22;32452;51.382;-0.002;2022-10-16T15:40:58;16.80;83.60
46720;DHT22;32452;51.382;-0.002;2022-10-16T15:43:45;16.70;84.10
46720;DHT22;32452;51.382;-0.002;2022-10-16T15:46:33;16.70;84.70
46720;DHT22;32452;51.382;-0.002;2022-10-16T15:49:19;16.60;85.30
46720;DHT22;32452;51.382;-0.002;2022-10-16T15:52:05;16.60;85.80
46720;DHT22;32452;51.382;-0.002;2022-10-16T15:54:51;16.60;86.30
46720;DHT22;32452;51.382;-0.002;2022-10-16T15:57:39;16.60;87.00
46720;DHT22;32452;51.382;-0.002;2022-10-16T16:00:27;16.60;87.50
46720;DHT22;32452;51.382;-0.002;2022-10-16T16:03:13;16.50;88.10
46720;DHT22;32452;51.382;-0.002;2022-10-16T16:06:04;16.50;88.90
46720;DHT22;32452;51.382;-0.002;2022-10-16T16:08:51;16.50;89.40
46720;DHT22;32452;51.382;-0.002;2022-10-16T16:11:37;16.50;89.50
46720;DHT22;32452;51.382;-0.002;2022-10-16T16:14:24;16.40;89.70
46720;DHT22;32452;51.382;-0.002;2022-10-16T16:17:11;16.40;89.90
46720;DHT22;32452;51.382;-0.002;2022-10-16T16:19:56;16.40;90.10
46720;DHT22;32452;51.382;-0.002;2022-10-16T16:22:42;16.30;90.30
46720;DHT22;32452;51.382;-0.002;2022-10-16T16:25:28;16.20;90.50
46720;DHT22;32452;51.382;-0.002;2022-10-16T16:28:14;16.30;91.00
46720;DHT22;32452;51.382;-0.002;2022-10-16T16:30:59;16.20;91.30
46720;DHT22;32452;51.382;-0.002;2022-10-16T16:33:45;16.20;91.70
46720;DHT22;32452;51.382;-0.002;2022-10-16T16:36:31;16.10;92.00
46720;DHT22;32452;51.382;-0.002;2022-10-16T16:39:18;16.10;92.20
46720;DHT22;32452;51.382;-0.002;2022-10-16T16:42:04;16.00;92.60
46720;DHT22;32452;51.382;-0.002;2022-10-16T16:44:51;16.00;93.00
46720;DHT22;32452;51.382;-0.002;2022-10-16T16:47:36;15.90;93.20
46720;DHT22;32452;51.382;-0.002;2022-10-16T16:50:23;15.90;93.40
46720;DHT22;32452;51.382;-0.002;2022-10-16T16:53:09;15.90;93.60
46720;DHT22;32452;51.382;-0.002;2022-10-16T16:55:54;15.80;93.80
46720;DHT22;32452;51.382;-0.002;2022-10-16T16:58:40;15.80;94.00
46720;DHT22;32452;51.382;-0.002;2022-10-16T17:01:26;15.80;94.20
46720;DHT22;32452;51.382;-0.002;2022-10-16T17:04:12;15.80;94.30
46720;DHT22;32452;51.382;-0.002;2022-10-16T17:07:00;15.80;94.30
46720;DHT22;32452;51.382;-0.002;2022-10-16T17:09:46;15.80;94.50
46720;DHT22;32452;51.382;-0.002;2022-10-16T17:12:31;15.80;94.70
46720;DHT22;32452;51.382;-0.002;2022-10-16T17:15:17;15.80;94.90
46720;DHT22;32452;51.382;-0.002;2022-10-16T17:18:02;15.80;95.10
46720;DHT22;32452;51.382;-0.002;2022-10-16T17:20:48;15.70;95.30
46720;DHT22;32452;51.382;-0.002;2022-10-16T17:23:35;15.70;95.50
46720;DHT22;32452;51.382;-0.002;2022-10-16T17:26:20;15.70;95.70
46720;DHT22;32452;51.382;-0.002;2022-10-16T17:29:07;15.70;96.00
46720;DHT22;32452;51.382;-0.002;2022-10-16T17:31:57;15.70;96.40
46720;DHT22;32452;51.382;-0.002;2022-10-16T17:34:43;15.60;96.60
46720;DHT22;32452;51.382;-0.002;2022-10-16T17:37:29;15.60;96.80
46720;DHT22;32452;51.382;-0.002;2022-10-16T17:40:14;15.50;96.90
46720;DHT22;32452;51.382;-0.002;2022-10-16T17:43:01;15.50;97.10
46720;DHT22;32452;51.382;-0.002;2022-10-16T17:45:46;15.50;97.50
46720;DHT22;32452;51.382;-0.002;2022-10-16T17:48:39;15.50;97.80
46720;DHT22;32452;51.382;-0.002;2022-10-16T17:51:27;15.40;98.10
46720;DHT22;32452;51.382;-0.002;2022-10-16T17:54:13;15.40;98.20
46720;DHT22;32452;51.382;-0.002;2022-10-16T17:56:59;15.40;98.40
46720;DHT22;32452;51.382;-0.002;2022-10-16T17:59:44;15.40;98.50
46720;DHT22;32452;51.382;-0.002;2022-10-16T18:02:30;15.40;98.80
46720;DHT22;32452;51.382;-0.002;2022-10-16T18:05:16;15.30;99.20
46720;DHT22;32452;51.382;-0.002;2022-10-16T18:08:01;15.30;99.40
46720;DHT22;32452;51.382;-0.002;2022-10-16T18:10:48;15.30;99.70
46720;DHT22;32452;51.382;-0.002;2022-10-16T18:13:34;15.20;99.90
46720;DHT22;32452;51.382;-0.002;2022-10-16T18:16:20;15.20;99.90
46720;DHT22;32452;51.382;-0.002;2022-10-16T18:19:06;15.20;99.90
46720;DHT22;32452;51.382;-0.002;2022-10-16T18:21:52;15.20;99.90
46720;DHT22;32452;51.382;-0.002;2022-10-16T18:24:40;15.20;99.90
46720;DHT22;32452;51.382;-0.002;2022-10-16T18:27:25;15.20;99.90
46720;DHT22;32452;51.382;-0.002;2022-10-16T18:30:11;15.20;99.90
46720;DHT22;32452;51.382;-0.002;2022-10-16T18:32:58;15.20;99.90
46720;DHT22;32452;51.382;-0.002;2022-10-16T18:35:44;15.20;99.90
46720;DHT22;32452;51.382;-0.002;2022-10-16T18:38:29;15.10;99.90
46720;DHT22;32452;51.382;-0.002;2022-10-16T18:41:15;15.10;99.90
46720;DHT22;32452;51.382;-0.002;2022-10-16T18:44:01;15.20;99.90
46720;DHT22;32452;51.382;-0.002;2022-10-16T18:46:46;15.20;99.90
46720;DHT22;32452;51.382;-0.002;2022-10-16T18:49:32;15.20;99.90
46720;DHT22;32452;51.382;-0.002;2022-10-16T18:52:17;15.20;99.90
46720;DHT22;32452;51.382;-0.002;2022-10-16T18:55:03;15.20;99.90
46720;DHT22;32452;51.382;-0.002;2022-10-16T18:57:49;15.20;99.90
46720;DHT22;32452;51.382;-0.002;2022-10-16T19:00:34;15.20;99.90
46720;DHT22;32452;51.382;-0.002;2022-10-16T19:03:20;15.20;99.90
46720;DHT22;32452;51.382;-0.002;2022-10-16T19:06:10;15.20;99.90
46720;DHT22;32452;51.382;-0.002;2022-10-16T19:08:56;15.20;99.90
46720;DHT22;32452;51.382;-0.002;2022-10-16T19:11:42;15.10;99.90
46720;DHT22;32452;51.382;-0.002;2022-10-16T19:14:28;15.10;99.90
46720;DHT22;32452;51.382;-0.002;2022-10-16T19:17:14;15.10;99.90
46720;DHT22;32452;51.382;-0.002;2022-10-16T19:19:59;15.10;99.90
46720;DHT22;32452;51.382;-0.002;2022-10-16T19:22:45;15.10;99.90
46720;DHT22;32452;51.382;-0.002;2022-10-16T19:25:43;15.10;99.90
46720;DHT22;32452;51.382;-0.002;2022-10-16T19:28:29;15.10;99.90
46720;DHT22;32452;51.382;-0.002;2022-10-16T19:31:17;15.10;99.90
46720;DHT22;32452;51.382;-0.002;2022-10-16T19:34:03;15.10;99.90
46720;DHT22;32452;51.382;-0.002;2022-10-16T19:36:52;15.00;99.90
46720;DHT22;32452;51.382;-0.002;2022-10-16T19:39:37;15.00;99.90
46720;DHT22;32452;51.382;-0.002;2022-10-16T19:42:23;15.00;99.90
46720;DHT22;32452;51.382;-0.002;2022-10-16T19:45:10;15.00;99.90